Turners Station, Kentucky
Current Conditions -  °F | °C
As of 5:33 AM on Monday 22 Dec 2014 (Local Time) from KIMS Reporting Station
Overcast Overcast  
Wind Chill: 29°   Ceiling: 4800
Heat Index: 34°   Visibility: 10mi
Dew Point: 28°   Wind: 6mph
Humidity: 81%   Direction: 110°ESE
Pressure: 30.01"   Gusts: NA
Location:  38.56°N, 85.17°W
Report Text: KIMS 221033Z AUTO 11005KT 10SM SCT041 OVC048 01/M02 A3001 RMK AO1
Loading
Personal Weather Stations






























Interactive Weather Map New forecast layout! Learn more

10-Day Weather Forecast

Advertisements
Track Severe Weather on mobile